Latest Weather Observations for Warburto Point

IDS60801

Issued at 10:31 pm CST Monday 31 August 2015 (issued every 30 minutes, with the page automatically refreshed every 10 minutes)

About weather observations | Map of weather stations | Latest weather observations for SA | Other Formats
Station Details ID: 022053 Name: WARBURTO POINT Lat: -34.00 Lon: 137.53 Height: 1.0 m
Data from the previous 72 hours. | See also: Recent months for locations in South Australia
Date/Time
CST
Temp
°C
App
Temp
°C
Dew
Point
Rel
Hum
%
Delta-T
°C
Wind Press
QNH
hPa
Press
MSL
hPa
Rain
since 9 am
mm
Dir
 
Spd
km/h
Gust
km/h
Spd
kts
Gust
kts
31/10:30pm - - - - - NE 15 17 8 9 - - -
31/10:00pm - - - - - NE 17 19 9 10 - - -
31/09:30pm - - - - - ENE 17 20 9 11 - - -
31/09:00pm - - - - - ENE 19 20 10 11 - - -
31/08:30pm - - - - - ENE 17 20 9 11 - - -
31/08:00pm - - - - - E 19 20 10 11 - - -
31/07:30pm - - - - - E 17 19 9 10 - - -
31/07:00pm - - - - - E 17 19 9 10 - - -
31/06:30pm - - - - - E 19 19 10 10 - - -
31/06:00pm - - - - - ENE 15 15 8 8 - - -
31/05:30pm - - - - - NE 13 17 7 9 - - -
31/05:00pm - - - - - NNE 17 19 9 10 - - -
31/04:30pm - - - - - NNE 17 20 9 11 - - -
31/04:00pm - - - - - NNE 17 24 9 13 - - -
31/03:30pm - - - - - NNE 19 22 10 12 - - -
31/03:00pm - - - - - NNE 22 30 12 16 - - -
31/02:30pm - - - - - NNE 28 33 15 18 - - -
31/02:00pm - - - - - NNE 26 32 14 17 - - -
31/01:30pm - - - - - NNE 26 32 14 17 - - -
31/01:00pm - - - - - NNE 28 35 15 19 - - -
31/12:30pm - - - - - NNE 26 32 14 17 - - -
31/12:00pm - - - - - NNE 24 30 13 16 - - -
31/11:30am - - - - - NNE 26 30 14 16 - - -
31/11:00am - - - - - NNE 24 28 13 15 - - -
31/10:30am - - - - - NNE 22 28 12 15 - - -
31/10:00am - - - - - NNE 22 28 12 15 - - -
31/09:30am - - - - - NNE 17 19 9 10 - - -
31/09:00am - - - - - NNE 15 19 8 10 - - -
31/08:30am - - - - - NE 15 17 8 9 - - -
31/08:00am - - - - - NE 15 17 8 9 - - -
31/07:30am - - - - - NE 15 17 8 9 - - -
31/07:00am - - - - - ENE 17 19 9 10 - - -
31/06:30am - - - - - ENE 17 20 9 11 - - -
31/06:00am - - - - - ENE 17 20 9 11 - - -
31/05:30am - - - - - NE 17 19 9 10 - - -
31/05:00am - - - - - NE 15 15 8 8 - - -
31/04:30am - - - - - ENE 17 19 9 10 - - -
31/04:00am - - - - - ENE 17 19 9 10 - - -
31/03:30am - - - - - ENE 17 17 9 9 - - -
31/03:00am - - - - - ENE 13 15 7 8 - - -
31/02:30am - - - - - NE 15 17 8 9 - - -
31/02:00am - - - - - NNE 15 17 8 9 - - -
31/01:30am - - - - - E 19 20 10 11 - - -
31/01:00am - - - - - E 19 20 10 11 - - -
31/12:30am - - - - - E 17 19 9 10 - - -
31/12:00am - - - - - E 19 22 10 12 - - -
 
Date/Time
CST
Temp
°C
App
Temp
°C
Dew
Point
Rel
Hum
%
Delta-T
°C
Wind Press
QNH
hPa
Press
MSL
hPa
Rain
since 9 am
mm
Dir
 
Spd
km/h
Gust
km/h
Spd
kts
Gust
kts
30/11:30pm - - - - - E 17 19 9 10 - - -
30/11:00pm - - - - - E 19 24 10 13 - - -
30/10:30pm - - - - - E 15 17 8 9 - - -
30/10:00pm - - - - - E 17 22 9 12 - - -
30/09:30pm - - - - - E 17 19 9 10 - - -
30/09:00pm - - - - - ESE 15 19 8 10 - - -
30/08:30pm - - - - - ESE 17 20 9 11 - - -
30/08:00pm - - - - - ESE 15 17 8 9 - - -
30/07:30pm - - - - - ESE 13 17 7 9 - - -
30/07:00pm - - - - - ESE 9 11 5 6 - - -
30/06:30pm - - - - - ESE 9 9 5 5 - - -
30/06:00pm - - - - - NE 7 7 4 4 - - -
30/05:30pm - - - - - N 7 9 4 5 - - -
30/05:00pm - - - - - N 7 9 4 5 - - -
30/04:30pm - - - - - N 9 11 5 6 - - -
30/04:00pm - - - - - N 11 13 6 7 - - -
30/03:30pm - - - - - NNE 11 13 6 7 - - -
30/03:00pm - - - - - NNE 13 17 7 9 - - -
30/02:30pm - - - - - N 15 17 8 9 - - -
30/02:00pm - - - - - N 17 19 9 10 - - -
30/01:30pm - - - - - N 19 22 10 12 - - -
30/01:00pm - - - - - N 19 22 10 12 - - -
30/12:30pm - - - - - N 20 26 11 14 - - -
30/12:00pm - - - - - N 20 26 11 14 - - -
30/11:30am - - - - - N 20 24 11 13 - - -
30/11:00am - - - - - NNE 22 26 12 14 - - -
30/10:30am - - - - - NNE 20 26 11 14 - - -
30/10:00am - - - - - NNE 19 22 10 12 - - -
30/09:30am - - - - - NNE 17 24 9 13 - - -
30/09:00am - - - - - NE 17 24 9 13 - - -
30/08:30am - - - - - ENE 15 22 8 12 - - -
30/08:00am - - - - - ENE 9 13 5 7 - - -
30/07:30am - - - - - E 11 13 6 7 - - -
30/07:00am - - - - - E 15 17 8 9 - - -
30/06:30am - - - - - E 17 19 9 10 - - -
30/06:00am - - - - - ENE 17 19 9 10 - - -
30/05:30am - - - - - E 15 15 8 8 - - -
30/05:00am - - - - - E 13 13 7 7 - - -
30/04:30am - - - - - E 15 17 8 9 - - -
30/04:00am - - - - - E 17 19 9 10 - - -
30/03:30am - - - - - E 15 17 8 9 - - -
30/03:00am - - - - - ESE 13 15 7 8 - - -
30/02:30am - - - - - ESE 13 15 7 8 - - -
30/02:00am - - - - - ESE 13 17 7 9 - - -
30/01:30am - - - - - ESE 13 15 7 8 - - -
30/01:00am - - - - - ESE 13 15 7 8 - - -
30/12:30am - - - - - ESE 13 17 7 9 - - -
30/12:00am - - - - - ESE 15 19 8 10 - - -
 
Date/Time
CST
Temp
°C
App
Temp
°C
Dew
Point
Rel
Hum
%
Delta-T
°C
Wind Press
QNH
hPa
Press
MSL
hPa
Rain
since 9 am
mm
Dir
 
Spd
km/h
Gust
km/h
Spd
kts
Gust
kts
29/11:30pm - - - - - ESE 17 19 9 10 - - -
29/11:00pm - - - - - SE 15 19 8 10 - - -
29/10:30pm - - - - - SE 13 17 7 9 - - -
29/10:00pm - - - - - SE 15 19 8 10 - - -
29/09:30pm - - - - - SE 17 19 9 10 - - -
29/09:00pm - - - - - SE 15 19 8 10 - - -
29/08:30pm - - - - - SSE 17 20 9 11 - - -
29/08:00pm - - - - - SSE 15 19 8 10 - - -
29/07:30pm - - - - - SSE 19 20 10 11 - - -
29/07:00pm - - - - - SSE 17 22 9 12 - - -
29/06:30pm - - - - - SE 15 19 8 10 - - -
29/06:00pm - - - - - ESE 13 17 7 9 - - -
29/05:30pm - - - - - SSE 17 24 9 13 - - -
29/05:00pm - - - - - SW 19 24 10 13 - - -
29/04:30pm - - - - - SW 20 26 11 14 - - -
29/04:00pm - - - - - WSW 20 26 11 14 - - -
29/03:30pm - - - - - SW 20 24 11 13 - - -
29/03:00pm - - - - - SW 19 24 10 13 - - -
29/02:30pm - - - - - SW 19 24 10 13 - - -
29/02:00pm - - - - - SW 17 19 9 10 - - -
29/01:30pm - - - - - SW 15 20 8 11 - - -
29/01:00pm - - - - - WNW 13 15 7 8 - - -
29/12:30pm - - - - - NW 13 15 7 8 - - -
29/12:00pm - - - - - WNW 13 15 7 8 - - -
29/11:30am - - - - - NW 11 13 6 7 - - -
29/11:00am - - - - - NNW 13 15 7 8 - - -
29/10:30am - - - - - N 11 13 6 7 - - -
29/10:00am - - - - - NE 13 17 7 9 - - -
29/09:30am - - - - - E 15 22 8 12 - - -
29/09:00am - - - - - E 13 17 7 9 - - -
29/08:30am - - - - - ESE 11 15 6 8 - - -
29/08:00am - - - - - ESE 13 15 7 8 - - -
29/07:30am - - - - - ESE 15 17 8 9 - - -
29/07:00am - - - - - ESE 13 15 7 8 - - -
29/06:30am - - - - - SE 17 20 9 11 - - -
29/06:00am - - - - - SE 13 17 7 9 - - -
29/05:30am - - - - - SE 11 15 6 8 - - -
29/05:00am - - - - - SE 13 17 7 9 - - -
29/04:30am - - - - - SSE 17 19 9 10 - - -
29/04:00am - - - - - SE 9 9 5 5 - - -
29/03:30am - - - - - SE 11 13 6 7 - - -
29/03:00am - - - - - SE 11 13 6 7 - - -
29/02:30am - - - - - SE 13 15 7 8 - - -
29/02:00am - - - - - ESE 13 13 7 7 - - -
29/01:30am - - - - - ESE 11 13 6 7 - - -
29/01:00am - - - - - ESE 13 15 7 8 - - -
29/12:30am - - - - - ESE 13 15 7 8 - - -
29/12:00am - - - - - ESE 13 15 7 8 - - -
 
Date/Time
CST
Temp
°C
App
Temp
°C
Dew
Point
Rel
Hum
%
Delta-T
°C
Wind Press
QNH
hPa
Press
MSL
hPa
Rain
since 9 am
mm
Dir
 
Spd
km/h
Gust
km/h
Spd
kts
Gust
kts
28/11:30pm - - - - - ESE 13 13 7 7 - - -
28/11:00pm - - - - - ESE 13 15 7 8 - - -

Other Formats:

Comma delimited format used in spreadsheet applications
http://www.bom.gov.au/fwo/IDS60801/IDS60801.94666.axf

JavaScript Object Notation format (JSON) in row-major order
http://www.bom.gov.au/fwo/IDS60801/IDS60801.94666.json